createdAt,value
2023-05-14T06:58:07.140Z,14.50
2023-05-14T07:00:33.551Z,14.54
2023-05-14T07:03:00.035Z,14.81
2023-05-14T07:05:26.600Z,15.04
2023-05-14T07:07:53.021Z,15.14
2023-05-14T07:10:19.455Z,15.20
2023-05-14T07:12:45.921Z,15.19
2023-05-14T07:15:12.426Z,15.20
2023-05-14T07:17:39.085Z,15.21
2023-05-14T07:20:06.186Z,15.34
2023-05-14T07:22:32.761Z,15.31
2023-05-14T07:24:59.232Z,15.21
2023-05-14T07:27:26.003Z,15.17
2023-05-14T07:29:52.531Z,15.12
2023-05-14T07:32:18.935Z,15.13
2023-05-14T07:34:45.359Z,14.97
2023-05-14T07:37:11.832Z,15.01
2023-05-14T07:39:38.491Z,15.08
2023-05-14T07:42:05.171Z,14.87
2023-05-14T07:44:31.680Z,14.76
2023-05-14T07:46:58.218Z,14.91
2023-05-14T07:49:24.649Z,14.89
2023-05-14T07:51:51.040Z,14.94
2023-05-14T07:54:17.742Z,14.74
2023-05-14T07:56:44.545Z,14.69
2023-05-14T07:59:11.000Z,14.84
2023-05-14T08:01:39.339Z,15.08
2023-05-14T08:04:06.182Z,15.34
2023-05-14T08:06:32.848Z,15.51
2023-05-14T08:08:59.376Z,15.63
2023-05-14T08:11:26.266Z,15.70
2023-05-14T08:13:52.797Z,15.57
2023-05-14T08:16:19.325Z,15.48
2023-05-14T08:18:45.746Z,15.39
2023-05-14T08:21:12.192Z,15.36
2023-05-14T08:23:38.613Z,15.49
2023-05-14T08:26:05.180Z,15.66
2023-05-14T08:28:31.586Z,16.07
2023-05-14T08:30:58.035Z,16.45
2023-05-14T08:33:24.479Z,16.64
2023-05-14T08:35:53.043Z,17.10
2023-05-14T08:38:19.561Z,17.13
2023-05-14T08:40:59.728Z,17.24
2023-05-14T08:43:30.858Z,17.48
2023-05-14T08:46:01.061Z,17.61
2023-05-14T08:48:33.526Z,17.97
2023-05-14T08:51:01.559Z,17.93
2023-05-14T08:53:28.501Z,18.05
2023-05-14T08:55:55.053Z,17.77
2023-05-14T08:58:21.681Z,17.75
2023-05-14T09:00:48.464Z,17.60
2023-05-14T09:03:15.978Z,17.59
2023-05-14T09:05:42.962Z,17.73
2023-05-14T09:08:09.313Z,17.84
2023-05-14T09:10:35.681Z,18.00
2023-05-14T09:13:02.497Z,17.85
2023-05-14T09:15:29.664Z,18.02
2023-05-14T09:17:56.750Z,18.20
2023-05-14T09:20:25.138Z,17.43
2023-05-14T09:22:54.870Z,17.69
2023-05-14T09:25:26.813Z,17.53
2023-05-14T09:27:56.728Z,17.87
2023-05-14T09:30:25.479Z,17.97
2023-05-14T09:32:54.473Z,18.36
2023-05-14T09:35:23.411Z,18.48
2023-05-14T09:37:51.758Z,18.77
2023-05-14T09:40:19.898Z,19.05
2023-05-14T09:42:48.168Z,19.37
2023-05-14T09:45:15.764Z,19.25
2023-05-14T09:47:42.749Z,19.46
2023-05-14T09:50:10.036Z,19.58
2023-05-14T09:52:37.296Z,19.72
2023-05-14T09:55:04.212Z,19.80
2023-05-14T09:57:30.972Z,19.78
2023-05-14T09:59:57.533Z,19.74
2023-05-14T10:02:26.390Z,19.96
2023-05-14T10:04:54.510Z,19.91
2023-05-14T10:07:25.244Z,20.09
2023-05-14T10:09:58.214Z,20.01
2023-05-14T10:12:31.735Z,19.82
2023-05-14T10:15:01.293Z,20.06
2023-05-14T10:17:32.095Z,19.94
2023-05-14T10:20:02.554Z,20.04
2023-05-14T10:22:33.905Z,20.75
2023-05-14T10:25:01.867Z,21.00
2023-05-14T10:27:28.741Z,21.52
2023-05-14T10:29:56.404Z,22.43
2023-05-14T10:32:25.751Z,22.84
2023-05-14T10:34:53.554Z,22.78
2023-05-14T10:37:25.448Z,22.06
2023-05-14T10:39:51.844Z,21.85
2023-05-14T10:42:22.442Z,21.89
2023-05-14T10:45:02.032Z,21.69
2023-05-14T10:47:29.509Z,21.39
2023-05-14T10:50:00.872Z,20.20
2023-05-14T10:52:27.655Z,20.12
2023-05-14T10:55:01.928Z,19.89
2023-05-14T10:57:31.736Z,19.78
2023-05-14T11:00:01.158Z,19.77
2023-05-14T11:02:56.107Z,19.22
2023-05-14T11:05:22.740Z,19.28
2023-05-14T11:07:50.363Z,19.57
2023-05-14T11:10:25.915Z,19.60
2023-05-14T11:12:52.842Z,20.25
2023-05-14T11:15:24.541Z,20.77
2023-05-14T11:17:52.500Z,21.19
2023-05-14T11:20:19.610Z,21.37
2023-05-14T11:22:48.101Z,21.71
2023-05-14T11:25:15.214Z,21.59
2023-05-14T11:27:42.793Z,21.35
2023-05-14T11:30:17.518Z,21.18
2023-05-14T11:32:46.175Z,21.42
2023-05-14T11:35:13.314Z,22.02
2023-05-14T11:37:40.163Z,21.97
2023-05-14T11:40:16.300Z,21.58
2023-05-14T11:42:42.925Z,20.87
2023-05-14T11:45:13.941Z,20.17
2023-05-14T11:47:43.484Z,19.58
2023-05-14T11:50:11.102Z,19.36
2023-05-14T11:52:40.311Z,19.30
2023-05-14T11:55:11.619Z,19.68
2023-05-14T11:57:38.124Z,20.31
2023-05-14T12:00:08.619Z,20.74
2023-05-14T12:02:36.210Z,20.89
2023-05-14T12:05:02.851Z,20.81
2023-05-14T12:07:30.626Z,20.70
2023-05-14T12:10:01.392Z,20.41
2023-05-14T12:12:27.855Z,20.48
2023-05-14T12:14:54.400Z,20.23
2023-05-14T12:17:22.604Z,19.93
2023-05-14T12:19:52.534Z,20.38
2023-05-14T12:22:22.285Z,20.56
2023-05-14T12:24:59.314Z,21.32
2023-05-14T12:27:27.737Z,21.87
2023-05-14T12:30:19.159Z,22.85
2023-05-14T12:32:48.947Z,21.83
2023-05-14T12:35:15.609Z,22.04
2023-05-14T12:37:42.609Z,22.72
2023-05-14T12:40:09.799Z,22.77
2023-05-14T12:42:36.490Z,22.43
2023-05-14T12:45:05.628Z,21.34
2023-05-14T12:47:32.408Z,21.60
2023-05-14T12:49:58.968Z,21.19
2023-05-14T12:52:36.889Z,20.58
2023-05-14T12:55:06.918Z,20.94
2023-05-14T12:57:35.267Z,20.84
2023-05-14T13:00:07.004Z,20.34
2023-05-14T13:02:42.318Z,20.93
2023-05-14T13:05:10.761Z,20.70
2023-05-14T13:07:37.498Z,20.95
2023-05-14T13:10:05.759Z,19.94
2023-05-14T13:12:32.401Z,19.11
2023-05-14T13:14:58.871Z,17.65
2023-05-14T13:17:25.626Z,16.82
2023-05-14T13:19:52.278Z,16.75
2023-05-14T13:22:18.947Z,16.48
2023-05-14T13:24:45.680Z,16.51
2023-05-14T13:27:12.200Z,16.42
2023-05-14T13:29:38.631Z,16.64
2023-05-14T13:32:05.376Z,16.83
2023-05-14T13:34:31.844Z,17.02
2023-05-14T13:36:59.496Z,17.17
2023-05-14T13:39:27.181Z,17.27
2023-05-14T13:41:57.252Z,17.64
2023-05-14T13:44:24.541Z,17.75
2023-05-14T13:46:51.086Z,17.75
2023-05-14T13:49:17.612Z,17.98
2023-05-14T13:51:44.481Z,18.06
2023-05-14T13:54:11.188Z,17.92
2023-05-14T13:56:37.656Z,17.62
2023-05-14T13:59:04.132Z,17.53
2023-05-14T14:01:31.828Z,16.95
2023-05-14T14:03:58.652Z,16.56
2023-05-14T14:06:27.402Z,16.81
2023-05-14T14:08:54.057Z,16.88
2023-05-14T14:11:20.834Z,17.21
2023-05-14T14:13:47.353Z,17.31
2023-05-14T14:16:13.784Z,17.16
2023-05-14T14:18:40.371Z,17.26
2023-05-14T14:21:06.806Z,17.28
2023-05-14T14:23:33.346Z,17.27
2023-05-14T14:26:00.591Z,17.27
2023-05-14T14:28:27.065Z,17.51
2023-05-14T14:30:53.596Z,17.69
2023-05-14T14:33:20.244Z,17.70
2023-05-14T14:35:46.896Z,17.54
2023-05-14T14:38:13.734Z,17.52
2023-05-14T14:40:40.330Z,17.45
2023-05-14T14:43:06.829Z,17.46
2023-05-14T14:45:33.403Z,17.50
2023-05-14T14:48:37.807Z,17.43
2023-05-14T14:51:06.079Z,17.45
2023-05-14T14:53:33.285Z,17.55
2023-05-14T14:56:03.140Z,17.73
2023-05-14T14:58:30.918Z,17.83
2023-05-14T15:00:58.005Z,17.94
2023-05-14T15:03:25.107Z,18.08
2023-05-14T15:05:53.340Z,18.16
2023-05-14T15:08:20.874Z,18.28
2023-05-14T15:10:47.372Z,18.40
2023-05-14T15:13:13.970Z,18.52
2023-05-14T15:15:40.612Z,18.63
2023-05-14T15:18:07.136Z,18.80
2023-05-14T15:20:33.832Z,18.93
2023-05-14T15:23:00.307Z,19.02
2023-05-14T15:25:27.238Z,19.11
2023-05-14T15:27:53.726Z,19.12
2023-05-14T15:30:20.448Z,19.22
2023-05-14T15:32:47.068Z,19.25
2023-05-14T15:35:13.948Z,19.33
2023-05-14T15:37:42.773Z,19.38
2023-05-14T15:40:10.390Z,19.37
2023-05-14T15:42:38.888Z,19.28
2023-05-14T15:45:07.123Z,19.33
2023-05-14T15:47:33.790Z,19.22
2023-05-14T15:50:00.764Z,19.09
2023-05-14T15:52:27.234Z,18.94
2023-05-14T15:54:54.372Z,18.61
2023-05-14T15:57:20.912Z,18.58
2023-05-14T15:59:47.587Z,18.59
2023-05-14T16:02:15.375Z,18.50
2023-05-14T16:04:41.869Z,18.24
2023-05-14T16:07:10.058Z,18.25
2023-05-14T16:09:37.245Z,18.11
2023-05-14T16:12:05.104Z,18.00
2023-05-14T16:14:33.795Z,17.93
2023-05-14T16:17:01.922Z,18.07
2023-05-14T16:19:28.652Z,18.11
2023-05-14T16:21:55.316Z,18.20
2023-05-14T16:24:21.768Z,18.42
2023-05-14T16:26:48.392Z,18.49
2023-05-14T16:29:14.807Z,18.47
2023-05-14T16:31:41.247Z,18.10
2023-05-14T16:34:07.690Z,17.99
2023-05-14T16:36:34.192Z,17.88
2023-05-14T16:41:30.071Z,17.78
2023-05-14T16:43:56.508Z,17.63
2023-05-14T16:46:23.009Z,17.54
2023-05-14T16:48:50.650Z,17.49
2023-05-14T16:51:17.148Z,17.45
2023-05-14T16:53:43.588Z,17.54
2023-05-14T16:56:10.030Z,17.55
2023-05-14T16:58:36.639Z,17.58
2023-05-14T17:01:03.097Z,17.61
2023-05-14T17:03:29.511Z,17.47
2023-05-14T17:05:55.976Z,17.46
2023-05-14T17:08:22.480Z,17.44
2023-05-14T17:10:48.928Z,17.46
2023-05-14T17:13:15.460Z,17.42
2023-05-14T17:15:42.563Z,17.60
2023-05-14T17:18:09.218Z,17.80
2023-05-14T17:20:35.802Z,17.85
2023-05-14T17:23:02.360Z,17.84
2023-05-14T17:25:28.817Z,17.70
2023-05-14T17:27:55.342Z,17.61
2023-05-14T17:30:21.968Z,17.55
2023-05-14T17:32:50.898Z,17.55
2023-05-14T17:35:17.504Z,17.46
2023-05-14T17:37:44.004Z,17.51
2023-05-14T17:40:10.998Z,17.45
2023-05-14T17:42:37.400Z,17.39
2023-05-14T17:45:04.153Z,17.39
2023-05-14T17:47:30.697Z,17.33
2023-05-14T17:49:57.158Z,17.29
2023-05-14T17:52:23.685Z,17.28
2023-05-14T17:54:50.172Z,17.22
2023-05-14T17:57:16.925Z,17.18
2023-05-14T17:59:43.537Z,17.26
2023-05-14T18:02:09.969Z,17.26
2023-05-14T18:04:36.326Z,17.26
2023-05-14T18:07:03.222Z,17.18
2023-05-14T18:09:29.684Z,17.11
2023-05-14T18:11:57.068Z,16.97
2023-05-14T18:14:23.413Z,16.76
2023-05-14T18:16:49.991Z,16.70
2023-05-14T18:19:16.515Z,16.62
2023-05-14T18:21:43.241Z,16.57
2023-05-14T18:24:09.722Z,16.43
2023-05-14T18:26:36.335Z,16.34
2023-05-14T18:29:02.706Z,16.27
2023-05-14T18:31:29.223Z,16.24
2023-05-14T18:33:55.745Z,16.23
2023-05-14T18:36:22.311Z,16.21
2023-05-14T18:38:48.815Z,16.22
2023-05-14T18:41:15.390Z,16.19
2023-05-14T18:43:41.814Z,16.10
2023-05-14T18:46:08.381Z,16.03
2023-05-14T18:48:35.058Z,15.97
2023-05-14T18:51:01.644Z,15.90
2023-05-14T18:53:29.286Z,15.90
2023-05-14T18:55:56.100Z,15.83
2023-05-14T18:58:22.555Z,15.78
2023-05-14T19:00:49.161Z,15.68
2023-05-14T19:03:15.751Z,15.62
2023-05-14T19:05:42.383Z,15.54
2023-05-14T19:08:08.928Z,15.48
2023-05-14T19:10:35.310Z,15.42
2023-05-14T19:13:02.213Z,15.33
2023-05-14T19:15:28.687Z,15.29
2023-05-14T19:17:55.206Z,15.29
2023-05-14T19:20:21.788Z,15.25
2023-05-14T19:22:48.173Z,15.25
2023-05-14T19:25:14.948Z,15.20
2023-05-14T19:27:41.482Z,15.15
2023-05-14T19:30:08.386Z,15.10
2023-05-14T19:32:37.387Z,15.06
2023-05-14T19:35:05.796Z,14.98
2023-05-14T19:37:32.280Z,14.90
2023-05-14T19:39:58.706Z,14.83
2023-05-14T19:42:25.253Z,14.76
2023-05-14T19:44:51.646Z,14.71
2023-05-14T19:47:18.418Z,14.67
2023-05-14T19:49:44.897Z,14.64
2023-05-14T19:52:11.448Z,14.61
2023-05-14T19:54:37.922Z,14.58
2023-05-14T19:57:04.712Z,14.55
2023-05-14T19:59:31.231Z,14.58
2023-05-14T20:01:57.702Z,14.63
2023-05-14T20:04:26.079Z,14.62
2023-05-14T20:06:52.722Z,14.66
2023-05-14T20:09:20.092Z,14.67
2023-05-14T20:11:46.480Z,14.64
2023-05-14T20:14:12.878Z,14.68
2023-05-14T20:16:39.617Z,14.64
2023-05-14T20:19:06.616Z,14.67
2023-05-14T20:21:33.211Z,14.70
2023-05-14T20:23:59.637Z,14.78
2023-05-14T20:26:26.069Z,14.79
2023-05-14T20:28:53.614Z,14.83
2023-05-14T20:31:21.432Z,14.78
2023-05-14T20:33:48.222Z,14.75
2023-05-14T20:36:14.746Z,14.73
2023-05-14T20:38:41.743Z,14.71
2023-05-14T20:41:08.424Z,14.71
2023-05-14T20:43:34.923Z,14.68
2023-05-14T20:46:01.486Z,14.66
2023-05-14T20:48:27.916Z,14.66
2023-05-14T20:50:54.306Z,14.60
2023-05-14T20:53:21.036Z,14.54
2023-05-14T20:55:47.452Z,14.44
2023-05-14T20:58:13.854Z,14.34
2023-05-14T21:00:40.436Z,14.28
2023-05-14T21:03:07.146Z,14.20
2023-05-14T21:05:33.663Z,14.11
2023-05-14T21:08:00.150Z,14.02
2023-05-14T21:10:26.826Z,13.96
2023-05-14T21:12:53.371Z,13.90
2023-05-14T21:15:19.981Z,13.83
2023-05-14T21:17:46.490Z,13.76
2023-05-14T21:20:15.329Z,13.68
2023-05-14T21:22:41.769Z,13.61
2023-05-14T21:25:08.652Z,13.55
2023-05-14T21:27:35.207Z,13.53
2023-05-14T21:30:01.610Z,13.48
2023-05-14T21:32:28.259Z,13.45
2023-05-14T21:34:54.758Z,13.45
2023-05-14T21:37:21.808Z,13.47
2023-05-14T21:39:48.269Z,13.53
2023-05-14T21:42:16.066Z,13.59
2023-05-14T21:44:42.578Z,13.68
2023-05-14T21:47:09.023Z,13.70
2023-05-14T21:49:35.667Z,13.71
2023-05-14T21:52:02.195Z,13.72
2023-05-14T21:54:28.688Z,13.78
2023-05-14T21:56:55.389Z,13.84
2023-05-14T21:59:21.919Z,13.76
2023-05-14T22:02:05.681Z,13.70
2023-05-14T22:04:33.746Z,13.67
2023-05-14T22:07:00.157Z,13.67
2023-05-14T22:09:26.712Z,13.64
2023-05-14T22:11:53.170Z,13.72
2023-05-14T22:14:19.623Z,13.75
2023-05-14T22:16:47.189Z,13.77
2023-05-14T22:19:13.647Z,13.74
2023-05-14T22:21:40.239Z,13.76
2023-05-14T22:24:07.424Z,13.77
2023-05-14T22:26:34.642Z,13.79
2023-05-14T22:29:01.086Z,13.72
2023-05-14T22:31:27.578Z,13.62
2023-05-14T22:33:54.121Z,13.57
2023-05-14T22:36:20.557Z,13.49
2023-05-14T22:38:46.973Z,13.45
2023-05-14T22:41:13.447Z,13.39
2023-05-14T22:43:39.933Z,13.33
2023-05-14T22:46:06.873Z,13.31
2023-05-14T22:48:33.429Z,13.32
2023-05-14T22:50:59.835Z,13.27
2023-05-14T22:53:26.458Z,13.26
2023-05-14T22:55:52.955Z,13.22
2023-05-14T22:58:19.849Z,13.11
2023-05-14T23:00:46.424Z,13.04
2023-05-14T23:03:12.894Z,12.99
2023-05-14T23:05:39.548Z,12.98
2023-05-14T23:08:06.392Z,12.95
2023-05-14T23:10:33.659Z,12.95
2023-05-14T23:13:00.145Z,12.90
2023-05-14T23:15:26.874Z,12.84
2023-05-14T23:17:53.553Z,12.76
2023-05-14T23:20:20.200Z,12.68
2023-05-14T23:22:46.604Z,12.62
2023-05-14T23:25:13.105Z,12.59
2023-05-14T23:27:39.562Z,12.57
2023-05-14T23:30:06.802Z,12.55
2023-05-14T23:32:33.286Z,12.57
2023-05-14T23:34:59.728Z,12.55
2023-05-14T23:37:26.416Z,12.55
2023-05-14T23:39:53.392Z,12.57
2023-05-14T23:42:20.124Z,12.55
2023-05-14T23:44:46.794Z,12.57
2023-05-14T23:47:13.430Z,12.59
2023-05-14T23:49:40.771Z,12.60
2023-05-14T23:52:07.541Z,12.51
2023-05-14T23:54:33.961Z,12.43
2023-05-14T23:57:00.764Z,12.33
2023-05-14T23:59:27.194Z,12.27
